TAX977 LPPR-LPMA
Flight info
| Callsign | TAX977 |
|---|---|
| Flight time | 1h 46m |
| Altitude | 35000 |
| Route | ASMOV DCT DIRMA DCT VABEM DCT LIDRO |
| Aircraft | A320/M-SDE3FGHIRWY/LB1 |
Departure
| Time | 2026-05-04 16:58 |
|---|---|
| Airport | Francisco de Sá Carneiro Airport (LPPR) |
Arrival
| Time | 2026-05-04 18:44 |
|---|---|
| Airport | Cristiano Ronaldo International Airport (LPMA) |
| Time | Latitude | Longitude | Altitude | Speed | Heading |
|---|---|---|---|---|---|
| 2026-05-04 16:35 | 41.23549 | -8.67247 | 257 ft | 0 kts | 111° |
| 2026-05-04 16:42 | 41.23569 | -8.67301 | 258 ft | 3 kts | 129° |
| 2026-05-04 16:43 | 41.23599 | -8.67327 | 259 ft | 2 kts | 196° |
| 2026-05-04 16:43 | 41.23605 | -8.67324 | 259 ft | 0 kts | 209° |
| 2026-05-04 16:53 | 41.23604 | -8.67325 | 259 ft | 1 kts | 209° |
| 2026-05-04 16:54 | 41.23601 | -8.67327 | 259 ft | 0 kts | 209° |
| 2026-05-04 16:55 | 41.23421 | -8.67372 | 262 ft | 11 kts | 167° |
| 2026-05-04 16:55 | 41.23330 | -8.67456 | 266 ft | 6 kts | 257° |
| 2026-05-04 16:56 | 41.23325 | -8.67488 | 268 ft | 0 kts | 258° |
| 2026-05-04 16:56 | 41.23306 | -8.67609 | 274 ft | 7 kts | 258° |
| 2026-05-04 16:57 | 41.23298 | -8.67673 | 277 ft | 10 kts | 269° |
| 2026-05-04 16:57 | 41.23710 | -8.67846 | 259 ft | 83 kts | 347° |
| 2026-05-04 16:58 | 41.26569 | -8.68581 | 1393 ft | 154 kts | 343° |
| 2026-05-04 16:58 | 41.27672 | -8.68869 | 1924 ft | 172 kts | 345° |
| 2026-05-04 16:59 | 41.30312 | -8.69578 | 2566 ft | 216 kts | 344° |
| 2026-05-04 17:00 | 41.35304 | -8.73579 | 5528 ft | 230 kts | 281° |
| 2026-05-04 17:00 | 41.32844 | -8.79205 | 7541 ft | 270 kts | 221° |
| 2026-05-04 17:01 | 41.29869 | -8.82345 | 9277 ft | 277 kts | 221° |
| 2026-05-04 17:01 | 41.26796 | -8.85612 | 10577 ft | 298 kts | 222° |
| 2026-05-04 17:02 | 41.23399 | -8.89251 | 11551 ft | 324 kts | 222° |
| 2026-05-04 17:02 | 41.19845 | -8.93032 | 13069 ft | 330 kts | 222° |
| 2026-05-04 17:03 | 41.18039 | -8.94948 | 13828 ft | 333 kts | 223° |
| 2026-05-04 17:03 | 41.16222 | -8.96878 | 14489 ft | 336 kts | 223° |
| 2026-05-04 17:03 | 41.12536 | -9.00790 | 15809 ft | 341 kts | 223° |
| 2026-05-04 17:04 | 41.08797 | -9.04757 | 17117 ft | 347 kts | 224° |
| 2026-05-04 17:04 | 41.05002 | -9.08784 | 18393 ft | 352 kts | 224° |
| 2026-05-04 17:05 | 41.01157 | -9.12849 | 19468 ft | 358 kts | 224° |
| 2026-05-04 17:05 | 40.97238 | -9.16984 | 20548 ft | 362 kts | 224° |
| 2026-05-04 17:06 | 40.93269 | -9.21171 | 21621 ft | 367 kts | 224° |
| 2026-05-04 17:06 | 40.91267 | -9.23280 | 22154 ft | 369 kts | 225° |
| 2026-05-04 17:07 | 40.87232 | -9.27525 | 23209 ft | 373 kts | 225° |
| 2026-05-04 17:07 | 40.85886 | -9.28941 | 23543 ft | 374 kts | 225° |
| 2026-05-04 17:07 | 40.83156 | -9.31810 | 24014 ft | 376 kts | 225° |
| 2026-05-04 17:07 | 40.81110 | -9.33956 | 24089 ft | 376 kts | 225° |
| 2026-05-04 17:08 | 40.79057 | -9.36101 | 24100 ft | 375 kts | 225° |
| 2026-05-04 17:08 | 40.74967 | -9.40370 | 24109 ft | 375 kts | 225° |
| 2026-05-04 17:08 | 40.72927 | -9.42500 | 24104 ft | 373 kts | 225° |
| 2026-05-04 17:09 | 40.70892 | -9.44629 | 24105 ft | 372 kts | 225° |
| 2026-05-04 17:09 | 40.68863 | -9.46748 | 24104 ft | 373 kts | 225° |
| 2026-05-04 17:09 | 40.66822 | -9.48879 | 24105 ft | 374 kts | 225° |
| 2026-05-04 17:10 | 40.62732 | -9.53150 | 24350 ft | 377 kts | 225° |
| 2026-05-04 17:10 | 40.56517 | -9.59613 | 25634 ft | 382 kts | 225° |
| 2026-05-04 17:11 | 40.54425 | -9.61778 | 26039 ft | 383 kts | 225° |
| 2026-05-04 17:11 | 40.52357 | -9.63923 | 26428 ft | 385 kts | 226° |
| 2026-05-04 17:11 | 40.48137 | -9.68301 | 27201 ft | 387 kts | 226° |
| 2026-05-04 17:12 | 40.46019 | -9.70491 | 27603 ft | 388 kts | 226° |
| 2026-05-04 17:12 | 40.41755 | -9.74893 | 28354 ft | 392 kts | 226° |
| 2026-05-04 17:13 | 40.35271 | -9.81573 | 29444 ft | 397 kts | 226° |
| 2026-05-04 17:14 | 40.28722 | -9.88313 | 30372 ft | 403 kts | 226° |
| 2026-05-04 17:14 | 40.26511 | -9.90587 | 30630 ft | 405 kts | 226° |
| 2026-05-04 17:14 | 40.22055 | -9.95159 | 31131 ft | 409 kts | 226° |
| 2026-05-04 17:15 | 40.19808 | -9.97456 | 31380 ft | 411 kts | 226° |
| 2026-05-04 17:15 | 40.15308 | -10.02052 | 32031 ft | 410 kts | 226° |
| 2026-05-04 17:16 | 40.10838 | -10.06612 | 32720 ft | 408 kts | 226° |
| 2026-05-04 17:16 | 40.04128 | -10.13455 | 33736 ft | 407 kts | 226° |
| 2026-05-04 17:17 | 40.01898 | -10.15720 | 34054 ft | 406 kts | 226° |
| 2026-05-04 17:17 | 39.95184 | -10.22465 | 34809 ft | 407 kts | 226° |
| 2026-05-04 17:18 | 39.92961 | -10.24684 | 35014 ft | 408 kts | 225° |
| 2026-05-04 17:18 | 39.88450 | -10.29205 | 35134 ft | 409 kts | 226° |
| 2026-05-04 17:19 | 39.83937 | -10.33729 | 35127 ft | 409 kts | 225° |
| 2026-05-04 17:20 | 39.74950 | -10.42706 | 35131 ft | 408 kts | 225° |
| 2026-05-04 17:20 | 39.68193 | -10.49431 | 35134 ft | 408 kts | 225° |
| 2026-05-04 17:21 | 39.59185 | -10.58375 | 35134 ft | 408 kts | 225° |
| 2026-05-04 17:22 | 39.54655 | -10.62829 | 35132 ft | 408 kts | 225° |
| 2026-05-04 17:23 | 39.45613 | -10.71709 | 35133 ft | 408 kts | 225° |
| 2026-05-04 17:24 | 39.38824 | -10.78365 | 35139 ft | 408 kts | 225° |
| 2026-05-04 17:25 | 39.29765 | -10.87224 | 35148 ft | 408 kts | 225° |
| 2026-05-04 17:26 | 39.20769 | -10.96049 | 35119 ft | 407 kts | 225° |
| 2026-05-04 17:27 | 39.09506 | -11.07157 | 35145 ft | 408 kts | 225° |
| 2026-05-04 17:28 | 39.00138 | -11.15449 | 35159 ft | 422 kts | 209° |
| 2026-05-04 17:29 | 38.91979 | -11.19568 | 35175 ft | 410 kts | 218° |
| 2026-05-04 17:29 | 38.85273 | -11.25980 | 35172 ft | 399 kts | 225° |
| 2026-05-04 17:31 | 38.74300 | -11.36813 | 35134 ft | 400 kts | 224° |
| 2026-05-04 17:32 | 38.63266 | -11.47626 | 35150 ft | 400 kts | 224° |
| 2026-05-04 17:33 | 38.54411 | -11.56272 | 35132 ft | 400 kts | 224° |
| 2026-05-04 17:34 | 38.45546 | -11.64900 | 35151 ft | 401 kts | 224° |
| 2026-05-04 17:35 | 38.34474 | -11.75648 | 35166 ft | 401 kts | 224° |
| 2026-05-04 17:36 | 38.30024 | -11.79942 | 35168 ft | 401 kts | 224° |
| 2026-05-04 17:36 | 38.25575 | -11.84235 | 35143 ft | 401 kts | 223° |
| 2026-05-04 17:37 | 38.21124 | -11.88524 | 35146 ft | 401 kts | 223° |
| 2026-05-04 17:37 | 38.16668 | -11.92816 | 35155 ft | 402 kts | 223° |
| 2026-05-04 17:38 | 38.12214 | -11.97102 | 35164 ft | 402 kts | 223° |
| 2026-05-04 17:38 | 38.07752 | -12.01383 | 35165 ft | 402 kts | 223° |
| 2026-05-04 17:39 | 38.01062 | -12.07797 | 35132 ft | 402 kts | 222° |
| 2026-05-04 17:39 | 37.97347 | -12.11349 | 35144 ft | 402 kts | 222° |
| 2026-05-04 17:40 | 37.92142 | -12.16310 | 35160 ft | 403 kts | 222° |
| 2026-05-04 17:40 | 37.87662 | -12.20572 | 35170 ft | 403 kts | 222° |
| 2026-05-04 17:41 | 37.83911 | -12.24143 | 35170 ft | 403 kts | 222° |
| 2026-05-04 17:41 | 37.79428 | -12.28407 | 35172 ft | 403 kts | 222° |
| 2026-05-04 17:42 | 37.74973 | -12.32646 | 35174 ft | 403 kts | 222° |
| 2026-05-04 17:42 | 37.70490 | -12.36896 | 35178 ft | 403 kts | 222° |
| 2026-05-04 17:43 | 37.65999 | -12.41138 | 35175 ft | 403 kts | 222° |
| 2026-05-04 17:43 | 37.61509 | -12.45378 | 35173 ft | 403 kts | 222° |
| 2026-05-04 17:44 | 37.57018 | -12.49609 | 35177 ft | 403 kts | 222° |
| 2026-05-04 17:44 | 37.52518 | -12.53848 | 35178 ft | 403 kts | 222° |
| 2026-05-04 17:45 | 37.48026 | -12.58069 | 35172 ft | 402 kts | 222° |
| 2026-05-04 17:45 | 37.43555 | -12.62252 | 35178 ft | 402 kts | 222° |
| 2026-05-04 17:46 | 37.39076 | -12.66453 | 35184 ft | 401 kts | 223° |
| 2026-05-04 17:46 | 37.34597 | -12.70651 | 35186 ft | 401 kts | 222° |
| 2026-05-04 17:47 | 37.30118 | -12.74840 | 35183 ft | 401 kts | 223° |
| 2026-05-04 17:47 | 37.25637 | -12.79019 | 35151 ft | 401 kts | 223° |
| 2026-05-04 17:48 | 37.21190 | -12.83144 | 35176 ft | 399 kts | 223° |
| 2026-05-04 17:48 | 37.16734 | -12.87289 | 35186 ft | 398 kts | 223° |
| 2026-05-04 17:49 | 37.12285 | -12.91430 | 35189 ft | 398 kts | 223° |
| 2026-05-04 17:49 | 37.07840 | -12.95554 | 35189 ft | 397 kts | 223° |
| 2026-05-04 17:50 | 37.03394 | -12.99674 | 35188 ft | 397 kts | 223° |
| 2026-05-04 17:50 | 36.98950 | -13.03780 | 35152 ft | 397 kts | 223° |
| 2026-05-04 17:51 | 36.94512 | -13.07874 | 35176 ft | 396 kts | 223° |
| 2026-05-04 17:51 | 36.90074 | -13.11960 | 35179 ft | 396 kts | 223° |
| 2026-05-04 17:52 | 36.85641 | -13.16031 | 35185 ft | 396 kts | 223° |
| 2026-05-04 17:52 | 36.81235 | -13.20086 | 35185 ft | 395 kts | 223° |
| 2026-05-04 17:53 | 36.76811 | -13.24155 | 35190 ft | 395 kts | 223° |
| 2026-05-04 17:53 | 36.72379 | -13.28213 | 35156 ft | 395 kts | 222° |
| 2026-05-04 17:54 | 36.67951 | -13.32268 | 35169 ft | 395 kts | 222° |
| 2026-05-04 17:54 | 36.63521 | -13.36317 | 35176 ft | 395 kts | 222° |
| 2026-05-04 17:55 | 36.59082 | -13.40354 | 35177 ft | 395 kts | 222° |
| 2026-05-04 17:55 | 36.54653 | -13.44383 | 35181 ft | 395 kts | 222° |
| 2026-05-04 17:56 | 36.50223 | -13.48418 | 35182 ft | 394 kts | 222° |
| 2026-05-04 17:56 | 36.45796 | -13.52449 | 35156 ft | 394 kts | 222° |
| 2026-05-04 17:57 | 36.41391 | -13.56447 | 35162 ft | 395 kts | 222° |
| 2026-05-04 17:57 | 36.36948 | -13.60470 | 35173 ft | 395 kts | 222° |
| 2026-05-04 17:58 | 36.32503 | -13.64488 | 35174 ft | 395 kts | 222° |
| 2026-05-04 17:58 | 36.28058 | -13.68499 | 35177 ft | 395 kts | 222° |
| 2026-05-04 17:59 | 36.23688 | -13.72437 | 35179 ft | 395 kts | 222° |
| 2026-05-04 18:00 | 36.16971 | -13.78490 | 35165 ft | 395 kts | 221° |
| 2026-05-04 18:00 | 36.12526 | -13.82494 | 35172 ft | 395 kts | 221° |
| 2026-05-04 18:01 | 36.08080 | -13.86482 | 35173 ft | 395 kts | 221° |
| 2026-05-04 18:01 | 36.03634 | -13.90462 | 35188 ft | 394 kts | 221° |
| 2026-05-04 18:02 | 35.96977 | -13.96410 | 35193 ft | 393 kts | 221° |
| 2026-05-04 18:02 | 35.92577 | -14.00338 | 35192 ft | 393 kts | 221° |
| 2026-05-04 18:03 | 35.88166 | -14.04275 | 35183 ft | 391 kts | 221° |
| 2026-05-04 18:03 | 35.83763 | -14.08192 | 35191 ft | 390 kts | 221° |
| 2026-05-04 18:04 | 35.79371 | -14.12089 | 35194 ft | 389 kts | 221° |
| 2026-05-04 18:05 | 35.72789 | -14.17928 | 35189 ft | 388 kts | 221° |
| 2026-05-04 18:05 | 35.68414 | -14.21811 | 35182 ft | 388 kts | 220° |
| 2026-05-04 18:06 | 35.61840 | -14.27641 | 35158 ft | 388 kts | 220° |
| 2026-05-04 18:06 | 35.57450 | -14.31510 | 35159 ft | 388 kts | 220° |
| 2026-05-04 18:07 | 35.53085 | -14.35351 | 35162 ft | 388 kts | 220° |
| 2026-05-04 18:07 | 35.48686 | -14.39224 | 35164 ft | 389 kts | 220° |
| 2026-05-04 18:08 | 35.44291 | -14.43087 | 35173 ft | 389 kts | 220° |
| 2026-05-04 18:08 | 35.39887 | -14.46955 | 35167 ft | 389 kts | 220° |
| 2026-05-04 18:09 | 35.31064 | -14.54684 | 35155 ft | 391 kts | 219° |
| 2026-05-04 18:10 | 35.26656 | -14.58538 | 35154 ft | 392 kts | 219° |
| 2026-05-04 18:10 | 35.22214 | -14.62421 | 35168 ft | 393 kts | 219° |
| 2026-05-04 18:11 | 35.17762 | -14.66307 | 35171 ft | 393 kts | 219° |
| 2026-05-04 18:11 | 35.13336 | -14.70175 | 35170 ft | 394 kts | 219° |
| 2026-05-04 18:12 | 35.08883 | -14.74051 | 35174 ft | 394 kts | 219° |
| 2026-05-04 18:12 | 35.04405 | -14.77933 | 35176 ft | 395 kts | 219° |
| 2026-05-04 18:13 | 34.99923 | -14.81821 | 35174 ft | 395 kts | 219° |
| 2026-05-04 18:14 | 34.93205 | -14.87632 | 35179 ft | 395 kts | 219° |
| 2026-05-04 18:14 | 34.88727 | -14.91506 | 35178 ft | 394 kts | 219° |
| 2026-05-04 18:15 | 34.79788 | -14.99210 | 35151 ft | 395 kts | 219° |
| 2026-05-04 18:16 | 34.75289 | -15.03091 | 35150 ft | 397 kts | 219° |
| 2026-05-04 18:16 | 34.70767 | -15.06982 | 35149 ft | 398 kts | 219° |
| 2026-05-04 18:17 | 34.63957 | -15.12812 | 35154 ft | 399 kts | 219° |
| 2026-05-04 18:18 | 34.57141 | -15.18642 | 35155 ft | 400 kts | 219° |
| 2026-05-04 18:18 | 34.52594 | -15.22538 | 35143 ft | 400 kts | 219° |
| 2026-05-04 18:19 | 34.45764 | -15.28373 | 35149 ft | 401 kts | 219° |
| 2026-05-04 18:19 | 34.41227 | -15.32244 | 35150 ft | 401 kts | 219° |
| 2026-05-04 18:20 | 34.36656 | -15.36124 | 35150 ft | 401 kts | 219° |
| 2026-05-04 18:20 | 34.32092 | -15.40001 | 35154 ft | 401 kts | 218° |
| 2026-05-04 18:21 | 34.27521 | -15.43888 | 35160 ft | 401 kts | 219° |
| 2026-05-04 18:21 | 34.22958 | -15.47755 | 35148 ft | 400 kts | 218° |
| 2026-05-04 18:22 | 34.18405 | -15.51603 | 34853 ft | 396 kts | 219° |
| 2026-05-04 18:22 | 34.16189 | -15.53475 | 34452 ft | 391 kts | 219° |
| 2026-05-04 18:22 | 34.13964 | -15.55353 | 33949 ft | 388 kts | 219° |
| 2026-05-04 18:23 | 34.11759 | -15.57214 | 33466 ft | 384 kts | 219° |
| 2026-05-04 18:23 | 34.09581 | -15.59049 | 33006 ft | 380 kts | 219° |
| 2026-05-04 18:23 | 34.07422 | -15.60866 | 32539 ft | 376 kts | 219° |
| 2026-05-04 18:23 | 34.05286 | -15.62668 | 32087 ft | 373 kts | 219° |
| 2026-05-04 18:24 | 34.03170 | -15.64455 | 31643 ft | 370 kts | 219° |
| 2026-05-04 18:24 | 34.01070 | -15.66228 | 31199 ft | 367 kts | 219° |
| 2026-05-04 18:24 | 33.98992 | -15.67978 | 30768 ft | 363 kts | 219° |
| 2026-05-04 18:24 | 33.96921 | -15.69717 | 30333 ft | 360 kts | 218° |
| 2026-05-04 18:25 | 33.94871 | -15.71436 | 29880 ft | 357 kts | 218° |
| 2026-05-04 18:25 | 33.92850 | -15.73131 | 29477 ft | 352 kts | 218° |
| 2026-05-04 18:25 | 33.90854 | -15.74806 | 29068 ft | 347 kts | 218° |
| 2026-05-04 18:25 | 33.88888 | -15.76455 | 28687 ft | 343 kts | 218° |
| 2026-05-04 18:26 | 33.86941 | -15.78092 | 28299 ft | 339 kts | 219° |
| 2026-05-04 18:26 | 33.85023 | -15.79705 | 27918 ft | 335 kts | 219° |
| 2026-05-04 18:26 | 33.83121 | -15.81303 | 27547 ft | 332 kts | 219° |
| 2026-05-04 18:26 | 33.81230 | -15.82888 | 27177 ft | 330 kts | 218° |
| 2026-05-04 18:27 | 33.79349 | -15.84460 | 26794 ft | 328 kts | 218° |
| 2026-05-04 18:27 | 33.77476 | -15.86023 | 26411 ft | 327 kts | 218° |
| 2026-05-04 18:27 | 33.75639 | -15.87554 | 26046 ft | 325 kts | 218° |
| 2026-05-04 18:27 | 33.73783 | -15.89100 | 25648 ft | 323 kts | 218° |
| 2026-05-04 18:28 | 33.71940 | -15.90637 | 25260 ft | 322 kts | 218° |
| 2026-05-04 18:28 | 33.70107 | -15.92167 | 24862 ft | 320 kts | 218° |
| 2026-05-04 18:28 | 33.68276 | -15.93698 | 24443 ft | 319 kts | 218° |
| 2026-05-04 18:28 | 33.66462 | -15.95213 | 24046 ft | 317 kts | 217° |
| 2026-05-04 18:29 | 33.64620 | -15.96686 | 23587 ft | 318 kts | 216° |
| 2026-05-04 18:29 | 33.62756 | -15.98119 | 23105 ft | 317 kts | 216° |
| 2026-05-04 18:29 | 33.60894 | -15.99528 | 22676 ft | 316 kts | 215° |
| 2026-05-04 18:29 | 33.59036 | -16.00925 | 22257 ft | 314 kts | 215° |
| 2026-05-04 18:30 | 33.55973 | -16.03247 | 21549 ft | 313 kts | 215° |
| 2026-05-04 18:30 | 33.54136 | -16.04651 | 21132 ft | 312 kts | 214° |
| 2026-05-04 18:30 | 33.52311 | -16.06048 | 20717 ft | 311 kts | 215° |
| 2026-05-04 18:31 | 33.50485 | -16.07444 | 20301 ft | 311 kts | 215° |
| 2026-05-04 18:31 | 33.48660 | -16.08844 | 19884 ft | 311 kts | 214° |
| 2026-05-04 18:31 | 33.46837 | -16.10238 | 19469 ft | 311 kts | 215° |
| 2026-05-04 18:31 | 33.45013 | -16.11628 | 19062 ft | 312 kts | 214° |
| 2026-05-04 18:32 | 33.43175 | -16.13028 | 18651 ft | 313 kts | 215° |
| 2026-05-04 18:32 | 33.41331 | -16.14436 | 18203 ft | 315 kts | 214° |
| 2026-05-04 18:32 | 33.39488 | -16.15844 | 17783 ft | 315 kts | 213° |
| 2026-05-04 18:32 | 33.37638 | -16.17254 | 17373 ft | 315 kts | 213° |
| 2026-05-04 18:33 | 33.35789 | -16.18661 | 16964 ft | 315 kts | 213° |
| 2026-05-04 18:33 | 33.33944 | -16.20067 | 16566 ft | 314 kts | 213° |
| 2026-05-04 18:33 | 33.32101 | -16.21474 | 16171 ft | 314 kts | 213° |
| 2026-05-04 18:33 | 33.30263 | -16.22874 | 15770 ft | 314 kts | 213° |
| 2026-05-04 18:34 | 33.28421 | -16.24274 | 15386 ft | 314 kts | 213° |
| 2026-05-04 18:34 | 33.26574 | -16.25678 | 14992 ft | 314 kts | 213° |
| 2026-05-04 18:34 | 33.24733 | -16.27077 | 14601 ft | 314 kts | 213° |
| 2026-05-04 18:34 | 33.22885 | -16.28479 | 14209 ft | 315 kts | 213° |
| 2026-05-04 18:35 | 33.21055 | -16.29867 | 13782 ft | 315 kts | 213° |
| 2026-05-04 18:35 | 33.19180 | -16.31289 | 13375 ft | 315 kts | 213° |
| 2026-05-04 18:35 | 33.17357 | -16.32672 | 12972 ft | 313 kts | 213° |
| 2026-05-04 18:35 | 33.15524 | -16.34063 | 12584 ft | 312 kts | 213° |
| 2026-05-04 18:36 | 33.13690 | -16.35452 | 12180 ft | 311 kts | 213° |
| 2026-05-04 18:36 | 33.11865 | -16.36832 | 11778 ft | 310 kts | 213° |
| 2026-05-04 18:36 | 33.10046 | -16.38209 | 11374 ft | 309 kts | 213° |
| 2026-05-04 18:36 | 33.08237 | -16.39579 | 10971 ft | 308 kts | 213° |
| 2026-05-04 18:37 | 33.06451 | -16.40929 | 10811 ft | 298 kts | 213° |
| 2026-05-04 18:37 | 33.04726 | -16.42231 | 10482 ft | 291 kts | 212° |
| 2026-05-04 18:37 | 33.03032 | -16.43507 | 9986 ft | 289 kts | 212° |
| 2026-05-04 18:37 | 33.01315 | -16.44802 | 9319 ft | 291 kts | 212° |
| 2026-05-04 18:38 | 32.99626 | -16.46076 | 8890 ft | 284 kts | 212° |
| 2026-05-04 18:38 | 32.97977 | -16.47318 | 8488 ft | 277 kts | 212° |
| 2026-05-04 18:38 | 32.96364 | -16.48531 | 8100 ft | 270 kts | 212° |
| 2026-05-04 18:38 | 32.94781 | -16.49726 | 7695 ft | 269 kts | 213° |
| 2026-05-04 18:39 | 32.93201 | -16.50922 | 7285 ft | 270 kts | 214° |
| 2026-05-04 18:39 | 32.91761 | -16.52347 | 6868 ft | 269 kts | 222° |
| 2026-05-04 18:39 | 32.90366 | -16.53844 | 6437 ft | 270 kts | 222° |
| 2026-05-04 18:39 | 32.88971 | -16.55338 | 5991 ft | 270 kts | 222° |
| 2026-05-04 18:40 | 32.87570 | -16.56833 | 5554 ft | 270 kts | 222° |
| 2026-05-04 18:40 | 32.86169 | -16.58326 | 5079 ft | 271 kts | 222° |
| 2026-05-04 18:40 | 32.84770 | -16.59835 | 4597 ft | 272 kts | 223° |
| 2026-05-04 18:40 | 32.83427 | -16.61375 | 4152 ft | 272 kts | 224° |
| 2026-05-04 18:41 | 32.82090 | -16.62956 | 3706 ft | 271 kts | 225° |
| 2026-05-04 18:41 | 32.80759 | -16.64543 | 3252 ft | 270 kts | 225° |
| 2026-05-04 18:41 | 32.79440 | -16.66113 | 2788 ft | 266 kts | 225° |
| 2026-05-04 18:41 | 32.78157 | -16.67631 | 2350 ft | 253 kts | 225° |
| 2026-05-04 18:42 | 32.76933 | -16.69076 | 1937 ft | 246 kts | 225° |
| 2026-05-04 18:42 | 32.75749 | -16.70465 | 1619 ft | 231 kts | 225° |
| 2026-05-04 18:42 | 32.74662 | -16.71734 | 1332 ft | 207 kts | 225° |
| 2026-05-04 18:42 | 32.73678 | -16.72885 | 1091 ft | 188 kts | 225° |
| 2026-05-04 18:43 | 32.72812 | -16.73899 | 1034 ft | 163 kts | 224° |
| 2026-05-04 18:43 | 32.72070 | -16.74768 | 1012 ft | 144 kts | 224° |
| 2026-05-04 18:43 | 32.71376 | -16.75600 | 787 ft | 140 kts | 225° |
| 2026-05-04 18:43 | 32.70673 | -16.76430 | 334 ft | 145 kts | 223° |
| 2026-05-04 18:44 | 32.69977 | -16.77246 | 214 ft | 136 kts | 221° |
| 2026-05-04 18:44 | 32.69538 | -16.77751 | 178 ft | 125 kts | 224° |
| 2026-05-04 18:44 | 32.69143 | -16.78245 | 176 ft | 45 kts | 226° |
| 2026-05-04 18:44 | 32.68921 | -16.78406 | 176 ft | 22 kts | 200° |
| 2026-05-04 18:45 | 32.68906 | -16.78483 | 176 ft | 7 kts | 350° |
| 2026-05-04 18:45 | 32.68983 | -16.78388 | 176 ft | 19 kts | 45° |
| 2026-05-04 18:45 | 32.69081 | -16.78271 | 176 ft | 21 kts | 45° |
| 2026-05-04 18:45 | 32.69188 | -16.78141 | 176 ft | 23 kts | 46° |
| 2026-05-04 18:46 | 32.69285 | -16.77991 | 176 ft | 22 kts | 79° |
| 2026-05-04 18:46 | 32.69313 | -16.77829 | 176 ft | 12 kts | 50° |
| 2026-05-04 18:46 | 32.69341 | -16.77773 | 176 ft | 5 kts | 123° |
| 2026-05-04 18:46 | 32.69322 | -16.77746 | 176 ft | 3 kts | 133° |
| 2026-05-04 18:47 | 32.69313 | -16.77735 | 176 ft | 1 kts | 137° |
| 2026-05-04 18:47 | 32.69310 | -16.77731 | 176 ft | 0 kts | 137° |